Pagina principale
METAR-TAF:

METAR-TAF

Aeroporti :

Altenstadt, Germania

latitudine: 47-50N, longitudine: 010-52E, altezza: 739 m

Osservazione

Il bollettino è stato emesso 41 minuti fa, alle 03:20 UTC
Vento 10 kt da est/nord-est
Temperature 2°C
Umidità 93%
Pressione 1032 hPa

METAR: ETHA 270320Z AUTO 06010KT //// // ////// 02/01 Q1032 ///

Ora: 05:01 (04:01 UTC)

Previsione

Il bollettino è stato emesso 19 ore e 41 minuti fa, alle 08:20 UTC
Previsione valida dal 26 alle 09 UTC al 26 alle 18 UTC
Vento 5 kt da ovest/sud-ovest
Visibilità 10 km o più
Nuvoloso ad un'altezza di 28000 ft
Evoluzione graduale
dal 26 alle 16 UTC al 26 alle 18 UTC
Vento 10 kt da ovest
Visibilità 10 km o più
Nubi sparse ad un'altezza di 2000 ft
Nuvoloso ad un'altezza di 8000 ft

TAF: ETHA 260820Z 2609/2618 24005KT 9999 NSW BKN280 BECMG 2616/2618 26010KT 9999 NSW SCT020 BKN080

Osservazioni e previsioni meteorologiche di più di 4000 aeroporti (messaggi METAR e TAF).

Le stazioni disponibili sono rappresentate dai dischi gialli e rossi sulla carta.

Puntare il mouse per vedere il nome della stazione.

Clicca sopra per visualizzare le osservazioni e previsioni meteorologiche.

Per cambiare la mappa : fare clic sui pulsanti verdi con una croce nera per ingrandire, il pulsante verde con un trattino per diminuire, o sulla freccia verde per le mappe adiacenti.


METAR-TAF: